sensor_id;sensor_type;location;lat;lon;timestamp;pressure;altitude;pressure_sealevel;temperature;humidity
51439;BME280;38816;51.142;-0.974;2022-10-26T00:02:12;99266.41;;;14.10;100.00
51439;BME280;38816;51.142;-0.974;2022-10-26T00:04:37;99254.41;;;14.06;100.00
51439;BME280;38816;51.142;-0.974;2022-10-26T00:07:03;99264.59;;;14.13;100.00
51439;BME280;38816;51.142;-0.974;2022-10-26T00:09:28;99264.59;;;14.15;100.00
51439;BME280;38816;51.142;-0.974;2022-10-26T00:11:54;99269.72;;;14.18;100.00
51439;BME280;38816;51.142;-0.974;2022-10-26T00:14:19;99261.09;;;14.19;100.00
51439;BME280;38816;51.142;-0.974;2022-10-26T00:16:44;99255.88;;;14.24;100.00
51439;BME280;38816;51.142;-0.974;2022-10-26T00:19:10;99245.59;;;14.19;100.00
51439;BME280;38816;51.142;-0.974;2022-10-26T00:21:35;99243.88;;;14.18;100.00
51439;BME280;38816;51.142;-0.974;2022-10-26T00:24:00;99242.25;;;14.11;100.00
51439;BME280;38816;51.142;-0.974;2022-10-26T00:26:26;99236.19;;;14.13;100.00
51439;BME280;38816;51.142;-0.974;2022-10-26T00:28:53;99237.09;;;14.11;100.00
51439;BME280;38816;51.142;-0.974;2022-10-26T00:31:19;99227.69;;;14.05;100.00
51439;BME280;38816;51.142;-0.974;2022-10-26T00:33:44;99238.00;;;14.07;100.00
51439;BME280;38816;51.142;-0.974;2022-10-26T00:36:10;99227.78;;;13.98;100.00
51439;BME280;38816;51.142;-0.974;2022-10-26T00:38:38;99226.06;;;13.98;100.00
51439;BME280;38816;51.142;-0.974;2022-10-26T00:41:20;99220.03;;;13.98;100.00
51439;BME280;38816;51.142;-0.974;2022-10-26T00:43:46;99226.06;;;13.98;100.00
51439;BME280;38816;51.142;-0.974;2022-10-26T00:46:19;99209.84;;;13.88;100.00
51439;BME280;38816;51.142;-0.974;2022-10-26T00:49:29;99218.41;;;13.90;100.00
51439;BME280;38816;51.142;-0.974;2022-10-26T00:51:41;99221.91;;;13.86;100.00
51439;BME280;38816;51.142;-0.974;2022-10-26T00:54:12;99217.66;;;13.82;100.00
51439;BME280;38816;51.142;-0.974;2022-10-26T00:56:40;99215.13;;;13.79;100.00
51439;BME280;38816;51.142;-0.974;2022-10-26T00:59:08;99207.41;;;13.76;100.00
51439;BME280;38816;51.142;-0.974;2022-10-26T01:01:37;99213.31;;;13.87;100.00
51439;BME280;38816;51.142;-0.974;2022-10-26T01:04:03;99218.38;;;13.93;100.00
51439;BME280;38816;51.142;-0.974;2022-10-26T01:06:30;99228.66;;;13.98;100.00
51439;BME280;38816;51.142;-0.974;2022-10-26T01:08:57;99219.16;;;13.99;100.00
51439;BME280;38816;51.142;-0.974;2022-10-26T01:11:23;99217.44;;;13.99;100.00
51439;BME280;38816;51.142;-0.974;2022-10-26T01:13:49;99229.41;;;14.06;100.00
51439;BME280;38816;51.142;-0.974;2022-10-26T01:16:23;99241.41;;;14.10;100.00
51439;BME280;38816;51.142;-0.974;2022-10-26T01:19:01;99238.78;;;14.12;100.00
51439;BME280;38816;51.142;-0.974;2022-10-26T01:27:08;99224.09;;;14.15;100.00
51439;BME280;38816;51.142;-0.974;2022-10-26T01:32:19;99228.31;;;14.21;100.00
51439;BME280;38816;51.142;-0.974;2022-10-26T01:34:52;99222.34;;;14.17;100.00
51439;BME280;38816;51.142;-0.974;2022-10-26T01:37:23;99221.44;;;14.20;100.00
51439;BME280;38816;51.142;-0.974;2022-10-26T01:39:54;99224.00;;;14.23;100.00
51439;BME280;38816;51.142;-0.974;2022-10-26T01:42:22;99212.81;;;14.21;100.00
51439;BME280;38816;51.142;-0.974;2022-10-26T01:45:00;99229.88;;;14.31;100.00
51439;BME280;38816;51.142;-0.974;2022-10-26T01:47:27;99235.03;;;14.34;100.00
51439;BME280;38816;51.142;-0.974;2022-10-26T01:49:55;99238.44;;;14.36;100.00
51439;BME280;38816;51.142;-0.974;2022-10-26T01:52:22;99231.53;;;14.35;100.00
51439;BME280;38816;51.142;-0.974;2022-10-26T01:54:48;99216.06;;;14.34;100.00
51439;BME280;38816;51.142;-0.974;2022-10-26T01:57:18;99213.38;;;14.40;100.00
51439;BME280;38816;51.142;-0.974;2022-10-26T02:05:22;99209.78;;;14.52;100.00
51439;BME280;38816;51.142;-0.974;2022-10-26T02:13:44;99214.13;;;14.50;100.00
51439;BME280;38816;51.142;-0.974;2022-10-26T02:19:07;99203.09;;;14.37;100.00
51439;BME280;38816;51.142;-0.974;2022-10-26T02:21:45;99203.28;;;14.25;100.00
51439;BME280;38816;51.142;-0.974;2022-10-26T02:24:15;99216.38;;;14.14;100.00
51439;BME280;38816;51.142;-0.974;2022-10-26T02:26:44;99207.94;;;14.01;100.00
51439;BME280;38816;51.142;-0.974;2022-10-26T02:29:15;99203.69;;;13.97;100.00
51439;BME280;38816;51.142;-0.974;2022-10-26T02:31:43;99204.56;;;13.94;100.00
51439;BME280;38816;51.142;-0.974;2022-10-26T02:34:12;99201.94;;;13.99;100.00
51439;BME280;38816;51.142;-0.974;2022-10-26T02:36:43;99190.00;;;13.90;100.00
51439;BME280;38816;51.142;-0.974;2022-10-26T02:39:10;99210.47;;;14.06;100.00
51439;BME280;38816;51.142;-0.974;2022-10-26T02:41:38;99204.38;;;14.10;100.00
51439;BME280;38816;51.142;-0.974;2022-10-26T02:44:15;99181.13;;;14.10;100.00
51439;BME280;38816;51.142;-0.974;2022-10-26T02:46:42;99187.94;;;14.14;100.00
51439;BME280;38816;51.142;-0.974;2022-10-26T02:49:08;99199.00;;;14.24;100.00
51439;BME280;38816;51.142;-0.974;2022-10-26T02:51:39;99196.34;;;14.28;100.00
51439;BME280;38816;51.142;-0.974;2022-10-26T02:56:53;99193.50;;;14.43;100.00
51439;BME280;38816;51.142;-0.974;2022-10-26T02:59:21;99195.16;;;14.49;100.00
51439;BME280;38816;51.142;-0.974;2022-10-26T03:01:50;99185.69;;;14.48;100.00
51439;BME280;38816;51.142;-0.974;2022-10-26T03:04:16;99195.91;;;14.57;100.00
51439;BME280;38816;51.142;-0.974;2022-10-26T03:06:41;99200.09;;;14.63;100.00
51439;BME280;38816;51.142;-0.974;2022-10-26T03:09:06;99183.78;;;14.61;100.00
51439;BME280;38816;51.142;-0.974;2022-10-26T03:11:32;99189.72;;;14.66;100.00
51439;BME280;38816;51.142;-0.974;2022-10-26T03:13:57;99192.19;;;14.74;100.00
51439;BME280;38816;51.142;-0.974;2022-10-26T03:16:23;99190.47;;;14.73;100.00
51439;BME280;38816;51.142;-0.974;2022-10-26T03:18:48;99199.00;;;14.78;100.00
51439;BME280;38816;51.142;-0.974;2022-10-26T03:21:13;99186.19;;;14.70;100.00
51439;BME280;38816;51.142;-0.974;2022-10-26T03:23:39;99201.72;;;14.70;100.00
51439;BME280;38816;51.142;-0.974;2022-10-26T03:26:04;99206.00;;;14.71;100.00
51439;BME280;38816;51.142;-0.974;2022-10-26T03:28:30;99212.09;;;14.67;100.00
51439;BME280;38816;51.142;-0.974;2022-10-26T03:30:55;99196.00;;;14.51;100.00
51439;BME280;38816;51.142;-0.974;2022-10-26T03:33:20;99205.44;;;14.54;100.00
51439;BME280;38816;51.142;-0.974;2022-10-26T03:35:53;99210.53;;;14.60;100.00
51439;BME280;38816;51.142;-0.974;2022-10-26T03:38:18;99208.81;;;14.57;100.00
51439;BME280;38816;51.142;-0.974;2022-10-26T03:40:44;99201.19;;;14.50;100.00
51439;BME280;38816;51.142;-0.974;2022-10-26T03:43:12;99208.94;;;14.50;100.00
51439;BME280;38816;51.142;-0.974;2022-10-26T03:45:38;99191.06;;;14.34;100.00
51439;BME280;38816;51.142;-0.974;2022-10-26T03:48:03;99202.31;;;14.30;100.00
51439;BME280;38816;51.142;-0.974;2022-10-26T03:50:29;99200.75;;;14.22;100.00
51439;BME280;38816;51.142;-0.974;2022-10-26T03:52:54;99214.66;;;14.13;100.00
51439;BME280;38816;51.142;-0.974;2022-10-26T03:55:19;99215.50;;;14.13;100.00
51439;BME280;38816;51.142;-0.974;2022-10-26T03:57:45;99210.47;;;14.04;100.00
51439;BME280;38816;51.142;-0.974;2022-10-26T04:00:12;99224.25;;;14.03;100.00
51439;BME280;38816;51.142;-0.974;2022-10-26T04:02:40;99221.78;;;13.96;100.00
51439;BME280;38816;51.142;-0.974;2022-10-26T04:05:06;99207.16;;;13.94;100.00
51439;BME280;38816;51.142;-0.974;2022-10-26T04:07:31;99219.13;;;14.00;100.00
51439;BME280;38816;51.142;-0.974;2022-10-26T04:09:57;99220.88;;;14.00;100.00
51439;BME280;38816;51.142;-0.974;2022-10-26T04:12:22;99202.88;;;13.93;100.00
51439;BME280;38816;51.142;-0.974;2022-10-26T04:14:47;99209.81;;;13.90;100.00
51439;BME280;38816;51.142;-0.974;2022-10-26T04:17:13;99202.19;;;13.81;100.00
51439;BME280;38816;51.142;-0.974;2022-10-26T04:19:38;99226.28;;;13.81;100.00
51439;BME280;38816;51.142;-0.974;2022-10-26T04:22:03;99227.19;;;13.77;100.00
51439;BME280;38816;51.142;-0.974;2022-10-26T04:24:29;99223.00;;;13.70;100.00
51439;BME280;38816;51.142;-0.974;2022-10-26T04:26:54;99234.94;;;13.77;100.00
51439;BME280;38816;51.142;-0.974;2022-10-26T04:29:20;99242.63;;;13.83;100.00
51439;BME280;38816;51.142;-0.974;2022-10-26T04:31:45;99241.66;;;13.90;100.00
51439;BME280;38816;51.142;-0.974;2022-10-26T04:34:11;99251.06;;;13.98;100.00
51439;BME280;38816;51.142;-0.974;2022-10-26T04:36:36;99250.97;;;14.04;100.00
51439;BME280;38816;51.142;-0.974;2022-10-26T04:39:02;99251.75;;;14.10;100.00
51439;BME280;38816;51.142;-0.974;2022-10-26T04:41:27;99245.78;;;14.04;100.00
51439;BME280;38816;51.142;-0.974;2022-10-26T04:43:52;99258.72;;;14.04;100.00
51439;BME280;38816;51.142;-0.974;2022-10-26T04:46:18;99239.91;;;13.94;100.00
51439;BME280;38816;51.142;-0.974;2022-10-26T04:48:43;99248.44;;;13.99;100.00
51439;BME280;38816;51.142;-0.974;2022-10-26T04:51:09;99262.22;;;14.01;100.00
51439;BME280;38816;51.142;-0.974;2022-10-26T04:53:34;99257.94;;;13.96;100.00
51439;BME280;38816;51.142;-0.974;2022-10-26T04:56:00;99269.16;;;13.94;100.00
51439;BME280;38816;51.142;-0.974;2022-10-26T04:58:26;99265.78;;;13.89;100.00
51439;BME280;38816;51.142;-0.974;2022-10-26T05:00:52;99274.25;;;14.02;100.00
51439;BME280;38816;51.142;-0.974;2022-10-26T05:03:18;99272.47;;;14.06;100.00
51439;BME280;38816;51.142;-0.974;2022-10-26T05:05:43;99268.13;;;14.08;100.00
51439;BME280;38816;51.142;-0.974;2022-10-26T05:08:08;99273.28;;;14.11;100.00
51439;BME280;38816;51.142;-0.974;2022-10-26T05:10:34;99273.25;;;14.14;100.00
51439;BME280;38816;51.142;-0.974;2022-10-26T05:13:00;99280.09;;;14.15;100.00
51439;BME280;38816;51.142;-0.974;2022-10-26T05:15:26;99274.97;;;14.12;100.00
51439;BME280;38816;51.142;-0.974;2022-10-26T05:17:56;99273.41;;;14.02;100.00
51439;BME280;38816;51.142;-0.974;2022-10-26T05:20:22;99287.94;;;14.09;100.00
51439;BME280;38816;51.142;-0.974;2022-10-26T05:22:53;99283.66;;;14.05;100.00
51439;BME280;38816;51.142;-0.974;2022-10-26T05:25:19;99283.56;;;14.12;100.00
51439;BME280;38816;51.142;-0.974;2022-10-26T05:27:44;99277.59;;;14.10;100.00
51439;BME280;38816;51.142;-0.974;2022-10-26T05:30:10;99288.75;;;14.12;100.00
51439;BME280;38816;51.142;-0.974;2022-10-26T05:32:35;99285.41;;;14.04;100.00
51439;BME280;38816;51.142;-0.974;2022-10-26T05:35:00;99290.56;;;14.06;100.00
51439;BME280;38816;51.142;-0.974;2022-10-26T05:37:29;99293.91;;;14.14;100.00
51439;BME280;38816;51.142;-0.974;2022-10-26T05:39:54;99302.47;;;14.17;100.00
51439;BME280;38816;51.142;-0.974;2022-10-26T05:42:20;99307.56;;;14.24;100.00
51439;BME280;38816;51.142;-0.974;2022-10-26T05:44:45;99310.09;;;14.28;100.00
51439;BME280;38816;51.142;-0.974;2022-10-26T05:47:11;99301.47;;;14.26;100.00
51439;BME280;38816;51.142;-0.974;2022-10-26T05:49:36;99289.47;;;14.22;100.00
51439;BME280;38816;51.142;-0.974;2022-10-26T05:52:01;99305.00;;;14.21;100.00
51439;BME280;38816;51.142;-0.974;2022-10-26T05:54:27;99287.13;;;14.04;100.00
51439;BME280;38816;51.142;-0.974;2022-10-26T05:56:52;99295.78;;;14.00;100.00
51439;BME280;38816;51.142;-0.974;2022-10-26T05:59:18;99303.66;;;13.92;100.00
51439;BME280;38816;51.142;-0.974;2022-10-26T06:02:16;99294.25;;;13.88;100.00
51439;BME280;38816;51.142;-0.974;2022-10-26T06:04:44;99294.28;;;13.83;100.00
51439;BME280;38816;51.142;-0.974;2022-10-26T06:07:16;99291.03;;;13.69;100.00
51439;BME280;38816;51.142;-0.974;2022-10-26T06:09:41;99308.22;;;13.70;100.00
51439;BME280;38816;51.142;-0.974;2022-10-26T06:12:08;99318.59;;;13.65;100.00
51439;BME280;38816;51.142;-0.974;2022-10-26T06:14:34;99318.59;;;13.65;100.00
51439;BME280;38816;51.142;-0.974;2022-10-26T06:30:04;99328.72;;;13.82;100.00
51439;BME280;38816;51.142;-0.974;2022-10-26T06:32:43;99330.50;;;13.80;100.00
51439;BME280;38816;51.142;-0.974;2022-10-26T06:38:17;99347.47;;;14.01;100.00
51439;BME280;38816;51.142;-0.974;2022-10-26T06:40:47;99328.44;;;14.10;100.00
51439;BME280;38816;51.142;-0.974;2022-10-26T06:45:55;99332.69;;;14.14;100.00
51439;BME280;38816;51.142;-0.974;2022-10-26T06:48:26;99336.91;;;14.18;100.00
51439;BME280;38816;51.142;-0.974;2022-10-26T06:50:54;99328.31;;;14.19;100.00
51439;BME280;38816;51.142;-0.974;2022-10-26T06:53:41;99342.81;;;14.29;100.00
51439;BME280;38816;51.142;-0.974;2022-10-26T06:56:10;99343.75;;;14.22;100.00
51439;BME280;38816;51.142;-0.974;2022-10-26T06:58:36;99338.69;;;14.16;100.00
51439;BME280;38816;51.142;-0.974;2022-10-26T07:01:02;99332.69;;;14.12;100.00
51439;BME280;38816;51.142;-0.974;2022-10-26T07:03:27;99345.53;;;14.20;100.00
51439;BME280;38816;51.142;-0.974;2022-10-26T07:05:53;99337.03;;;14.09;100.00
51439;BME280;38816;51.142;-0.974;2022-10-26T07:08:18;99349.03;;;14.13;100.00
51439;BME280;38816;51.142;-0.974;2022-10-26T07:10:45;99355.91;;;14.15;100.00
51439;BME280;38816;51.142;-0.974;2022-10-26T07:13:11;99355.78;;;14.26;100.00
51439;BME280;38816;51.142;-0.974;2022-10-26T07:15:37;99346.22;;;14.33;100.00
51439;BME280;38816;51.142;-0.974;2022-10-26T07:18:04;99336.75;;;14.30;100.00
51439;BME280;38816;51.142;-0.974;2022-10-26T07:20:31;99347.06;;;14.33;100.00
51439;BME280;38816;51.142;-0.974;2022-10-26T07:22:59;99338.53;;;14.28;100.00
51439;BME280;38816;51.142;-0.974;2022-10-26T07:25:25;99358.22;;;14.37;100.00
51439;BME280;38816;51.142;-0.974;2022-10-26T07:27:50;99363.31;;;14.43;100.00
51439;BME280;38816;51.142;-0.974;2022-10-26T07:30:16;99364.97;;;14.52;100.00
51439;BME280;38816;51.142;-0.974;2022-10-26T07:32:42;99369.22;;;14.56;100.00
51439;BME280;38816;51.142;-0.974;2022-10-26T07:35:08;99369.16;;;14.59;100.00
51439;BME280;38816;51.142;-0.974;2022-10-26T07:37:35;99370.03;;;14.58;100.00
51439;BME280;38816;51.142;-0.974;2022-10-26T07:40:00;99388.94;;;14.64;100.00
51439;BME280;38816;51.142;-0.974;2022-10-26T07:42:26;99395.78;;;14.67;100.00
51439;BME280;38816;51.142;-0.974;2022-10-26T07:44:51;99397.44;;;14.71;100.00
51439;BME280;38816;51.142;-0.974;2022-10-26T07:47:17;99404.28;;;14.75;100.00
51439;BME280;38816;51.142;-0.974;2022-10-26T07:49:42;99385.44;;;14.68;100.00
51439;BME280;38816;51.142;-0.974;2022-10-26T07:52:08;99403.31;;;14.84;100.00
51439;BME280;38816;51.142;-0.974;2022-10-26T07:54:33;99396.34;;;14.87;100.00
51439;BME280;38816;51.142;-0.974;2022-10-26T07:56:59;99391.00;;;15.00;100.00
51439;BME280;38816;51.142;-0.974;2022-10-26T07:59:25;99405.34;;;15.20;100.00
51439;BME280;38816;51.142;-0.974;2022-10-26T08:01:51;99403.59;;;15.23;100.00
51439;BME280;38816;51.142;-0.974;2022-10-26T08:04:16;99406.97;;;15.26;100.00
51439;BME280;38816;51.142;-0.974;2022-10-26T08:06:42;99424.13;;;15.33;100.00
51439;BME280;38816;51.142;-0.974;2022-10-26T08:09:07;99411.34;;;15.23;100.00
51439;BME280;38816;51.142;-0.974;2022-10-26T08:11:32;99433.81;;;15.20;100.00
51439;BME280;38816;51.142;-0.974;2022-10-26T08:14:01;99427.19;;;15.04;100.00
51439;BME280;38816;51.142;-0.974;2022-10-26T08:16:27;99416.97;;;14.95;100.00
51439;BME280;38816;51.142;-0.974;2022-10-26T08:18:52;99411.84;;;14.90;100.00
51439;BME280;38816;51.142;-0.974;2022-10-26T08:21:18;99428.25;;;14.88;100.00
51439;BME280;38816;51.142;-0.974;2022-10-26T08:23:43;99442.94;;;14.86;100.00
51439;BME280;38816;51.142;-0.974;2022-10-26T08:26:09;99436.22;;;14.74;100.00
51439;BME280;38816;51.142;-0.974;2022-10-26T08:28:36;99450.06;;;14.70;100.00
51439;BME280;38816;51.142;-0.974;2022-10-26T08:31:02;99453.59;;;14.64;100.00
51439;BME280;38816;51.142;-0.974;2022-10-26T08:33:28;99444.88;;;14.70;100.00
51439;BME280;38816;51.142;-0.974;2022-10-26T08:35:57;99436.19;;;14.76;100.00
51439;BME280;38816;51.142;-0.974;2022-10-26T08:38:23;99445.59;;;14.83;100.00
51439;BME280;38816;51.142;-0.974;2022-10-26T08:40:50;99446.34;;;14.89;100.00
51439;BME280;38816;51.142;-0.974;2022-10-26T08:43:18;99454.97;;;14.91;100.00
51439;BME280;38816;51.142;-0.974;2022-10-26T08:48:26;99445.41;;;14.97;100.00
51439;BME280;38816;51.142;-0.974;2022-10-26T08:53:56;99439.19;;;15.07;100.00
51439;BME280;38816;51.142;-0.974;2022-10-26T08:56:25;99458.25;;;15.03;100.00
51439;BME280;38816;51.142;-0.974;2022-10-26T08:59:05;99443.66;;;14.97;100.00
51439;BME280;38816;51.142;-0.974;2022-10-26T09:01:33;99455.78;;;14.95;100.00
51439;BME280;38816;51.142;-0.974;2022-10-26T09:04:01;99458.47;;;14.87;100.00
51439;BME280;38816;51.142;-0.974;2022-10-26T09:06:44;99461.88;;;14.89;100.00
51439;BME280;38816;51.142;-0.974;2022-10-26T09:09:20;99462.72;;;14.90;100.00
51439;BME280;38816;51.142;-0.974;2022-10-26T09:15:07;99459.81;;;15.14;100.00
51439;BME280;38816;51.142;-0.974;2022-10-26T09:25:40;99450.66;;;15.48;100.00
51439;BME280;38816;51.142;-0.974;2022-10-26T09:28:16;99459.00;;;15.68;100.00
51439;BME280;38816;51.142;-0.974;2022-10-26T09:30:43;99474.28;;;15.83;100.00
51439;BME280;38816;51.142;-0.974;2022-10-26T09:33:28;99460.41;;;15.86;100.00
51439;BME280;38816;51.142;-0.974;2022-10-26T09:36:02;99462.25;;;15.79;100.00
51439;BME280;38816;51.142;-0.974;2022-10-26T09:38:48;99465.81;;;15.74;100.00
51439;BME280;38816;51.142;-0.974;2022-10-26T09:41:37;99470.75;;;15.87;100.00
51439;BME280;38816;51.142;-0.974;2022-10-26T09:49:14;99498.97;;;16.04;100.00
51439;BME280;38816;51.142;-0.974;2022-10-26T09:51:42;99493.69;;;16.09;100.00
51439;BME280;38816;51.142;-0.974;2022-10-26T09:54:16;99491.09;;;16.09;100.00
51439;BME280;38816;51.142;-0.974;2022-10-26T09:56:44;99490.97;;;16.15;100.00
51439;BME280;38816;51.142;-0.974;2022-10-26T09:59:12;99496.88;;;16.23;100.00
51439;BME280;38816;51.142;-0.974;2022-10-26T10:01:38;99514.19;;;16.23;100.00
51439;BME280;38816;51.142;-0.974;2022-10-26T10:06:45;99527.75;;;15.87;100.00
51439;BME280;38816;51.142;-0.974;2022-10-26T10:09:16;99551.94;;;15.88;100.00
51439;BME280;38816;51.142;-0.974;2022-10-26T10:11:50;99559.75;;;15.86;100.00
51439;BME280;38816;51.142;-0.974;2022-10-26T10:14:24;99575.44;;;15.76;100.00
51439;BME280;38816;51.142;-0.974;2022-10-26T10:19:23;99566.91;;;15.70;100.00
51439;BME280;38816;51.142;-0.974;2022-10-26T10:21:51;99584.94;;;15.78;100.00
51439;BME280;38816;51.142;-0.974;2022-10-26T10:29:38;99590.25;;;15.69;100.00
51439;BME280;38816;51.142;-0.974;2022-10-26T10:32:04;99607.59;;;15.64;100.00
51439;BME280;38816;51.142;-0.974;2022-10-26T10:34:31;99620.56;;;15.61;100.00
51439;BME280;38816;51.142;-0.974;2022-10-26T10:36:57;99633.59;;;15.53;100.00
51439;BME280;38816;51.142;-0.974;2022-10-26T10:39:35;99631.16;;;15.42;100.00
51439;BME280;38816;51.142;-0.974;2022-10-26T10:42:03;99651.19;;;15.30;100.00
51439;BME280;38816;51.142;-0.974;2022-10-26T10:44:31;99649.56;;;15.21;100.00
51439;BME280;38816;51.142;-0.974;2022-10-26T10:47:05;99644.63;;;15.01;100.00
51439;BME280;38816;51.142;-0.974;2022-10-26T10:49:32;99658.63;;;14.83;100.00
51439;BME280;38816;51.142;-0.974;2022-10-26T10:51:58;99657.91;;;14.67;100.00
51439;BME280;38816;51.142;-0.974;2022-10-26T10:54:32;99673.38;;;14.74;100.00
51439;BME280;38816;51.142;-0.974;2022-10-26T10:59:44;99668.78;;;15.02;100.00
51439;BME280;38816;51.142;-0.974;2022-10-26T11:05:25;99689.22;;;15.25;100.00
51439;BME280;38816;51.142;-0.974;2022-10-26T11:08:00;99692.59;;;15.33;100.00
51439;BME280;38816;51.142;-0.974;2022-10-26T11:10:32;99695.13;;;15.37;100.00
51439;BME280;38816;51.142;-0.974;2022-10-26T11:13:04;99700.97;;;15.55;100.00
51439;BME280;38816;51.142;-0.974;2022-10-26T11:15:34;99700.88;;;15.64;100.00
51439;BME280;38816;51.142;-0.974;2022-10-26T11:18:06;99691.28;;;15.72;100.00
51439;BME280;38816;51.142;-0.974;2022-10-26T11:20:38;99697.06;;;15.89;100.00
51439;BME280;38816;51.142;-0.974;2022-10-26T11:26:26;99707.63;;;16.36;100.00
51439;BME280;38816;51.142;-0.974;2022-10-26T11:29:16;99711.38;;;16.72;100.00
51439;BME280;38816;51.142;-0.974;2022-10-26T11:31:47;99706.84;;;16.85;100.00
51439;BME280;38816;51.142;-0.974;2022-10-26T11:34:26;99721.31;;;16.96;100.00
51439;BME280;38816;51.142;-0.974;2022-10-26T11:37:01;99727.63;;;16.83;100.00
51439;BME280;38816;51.142;-0.974;2022-10-26T11:39:44;99734.78;;;16.67;100.00
51439;BME280;38816;51.142;-0.974;2022-10-26T11:42:21;99735.66;;;16.68;100.00
51439;BME280;38816;51.142;-0.974;2022-10-26T11:47:54;99737.69;;;16.49;100.00
51439;BME280;38816;51.142;-0.974;2022-10-26T11:50:24;99726.50;;;16.45;100.00
51439;BME280;38816;51.142;-0.974;2022-10-26T11:52:58;99746.38;;;16.48;100.00
51439;BME280;38816;51.142;-0.974;2022-10-26T11:55:27;99737.50;;;16.60;100.00
51439;BME280;38816;51.142;-0.974;2022-10-26T11:57:53;99728.78;;;16.64;100.00
51439;BME280;38816;51.142;-0.974;2022-10-26T12:00:20;99754.59;;;16.76;100.00
51439;BME280;38816;51.142;-0.974;2022-10-26T12:02:55;99733.94;;;16.65;100.00
51439;BME280;38816;51.142;-0.974;2022-10-26T12:05:26;99742.53;;;16.69;100.00
51439;BME280;38816;51.142;-0.974;2022-10-26T12:07:55;99745.78;;;16.83;100.00
51439;BME280;38816;51.142;-0.974;2022-10-26T12:10:28;99739.69;;;16.86;100.00
51439;BME280;38816;51.142;-0.974;2022-10-26T12:13:30;99758.69;;;16.89;100.00
51439;BME280;38816;51.142;-0.974;2022-10-26T12:16:03;99744.69;;;16.96;100.00
51439;BME280;38816;51.142;-0.974;2022-10-26T12:18:48;99763.66;;;17.02;100.00
51439;BME280;38816;51.142;-0.974;2022-10-26T12:21:16;99769.16;;;16.83;100.00
51439;BME280;38816;51.142;-0.974;2022-10-26T12:29:34;99778.75;;;16.78;100.00
51439;BME280;38816;51.142;-0.974;2022-10-26T12:34:04;99785.84;;;16.67;100.00
51439;BME280;38816;51.142;-0.974;2022-10-26T13:08:49;99832.84;;;16.49;99.22
51439;BME280;38816;51.142;-0.974;2022-10-26T13:11:18;99846.06;;;16.29;98.95
51439;BME280;38816;51.142;-0.974;2022-10-26T13:13:52;99844.63;;;16.06;100.00
51439;BME280;38816;51.142;-0.974;2022-10-26T13:16:19;99855.97;;;15.98;100.00
51439;BME280;38816;51.142;-0.974;2022-10-26T13:18:45;99856.97;;;15.84;100.00
51439;BME280;38816;51.142;-0.974;2022-10-26T13:21:16;99862.16;;;15.86;100.00
51439;BME280;38816;51.142;-0.974;2022-10-26T13:23:45;99865.72;;;15.74;100.00
51439;BME280;38816;51.142;-0.974;2022-10-26T13:26:19;99848.47;;;15.73;100.00
51439;BME280;38816;51.142;-0.974;2022-10-26T13:28:51;99860.28;;;15.99;100.00
51439;BME280;38816;51.142;-0.974;2022-10-26T13:34:03;99859.75;;;16.40;100.00
51439;BME280;38816;51.142;-0.974;2022-10-26T13:39:00;99877.25;;;16.26;100.00
51439;BME280;38816;51.142;-0.974;2022-10-26T13:41:35;99867.06;;;16.07;100.00
51439;BME280;38816;51.142;-0.974;2022-10-26T13:44:05;99879.34;;;15.93;100.00
51439;BME280;38816;51.142;-0.974;2022-10-26T13:46:35;99878.47;;;15.95;100.00
51439;BME280;38816;51.142;-0.974;2022-10-26T13:49:07;99881.72;;;16.13;100.00
51439;BME280;38816;51.142;-0.974;2022-10-26T13:51:46;99874.03;;;16.05;100.00
51439;BME280;38816;51.142;-0.974;2022-10-26T13:56:58;99888.47;;;16.26;100.00
51439;BME280;38816;51.142;-0.974;2022-10-26T13:59:27;99884.91;;;16.35;100.00
51439;BME280;38816;51.142;-0.974;2022-10-26T14:04:44;99900.25;;;16.50;100.00
51439;BME280;38816;51.142;-0.974;2022-10-26T14:07:24;99907.13;;;16.54;100.00
51439;BME280;38816;51.142;-0.974;2022-10-26T14:09:55;99885.31;;;16.66;100.00
51439;BME280;38816;51.142;-0.974;2022-10-26T14:12:23;99903.44;;;16.75;97.66
51439;BME280;38816;51.142;-0.974;2022-10-26T14:14:49;99898.28;;;16.69;97.28
51439;BME280;38816;51.142;-0.974;2022-10-26T14:17:23;99895.69;;;16.72;96.43
51439;BME280;38816;51.142;-0.974;2022-10-26T14:19:49;99897.50;;;16.61;98.37
51439;BME280;38816;51.142;-0.974;2022-10-26T14:22:24;99907.16;;;16.51;98.46
51439;BME280;38816;51.142;-0.974;2022-10-26T14:24:59;99919.19;;;16.58;99.23
51439;BME280;38816;51.142;-0.974;2022-10-26T14:27:26;99917.44;;;16.59;96.76
51439;BME280;38816;51.142;-0.974;2022-10-26T14:29:53;99920.88;;;16.61;97.68
51439;BME280;38816;51.142;-0.974;2022-10-26T14:32:20;99927.84;;;16.59;96.73
51439;BME280;38816;51.142;-0.974;2022-10-26T14:34:46;99928.78;;;16.52;96.58
51439;BME280;38816;51.142;-0.974;2022-10-26T14:37:21;99925.47;;;16.40;97.33
51439;BME280;38816;51.142;-0.974;2022-10-26T14:39:49;99915.25;;;16.28;98.38
51439;BME280;38816;51.142;-0.974;2022-10-26T14:44:47;99927.38;;;16.25;98.94
51439;BME280;38816;51.142;-0.974;2022-10-26T14:47:26;99924.06;;;16.13;99.80
51439;BME280;38816;51.142;-0.974;2022-10-26T14:49:52;99927.59;;;16.06;100.00
51439;BME280;38816;51.142;-0.974;2022-10-26T14:52:23;99934.50;;;16.07;100.00
51439;BME280;38816;51.142;-0.974;2022-10-26T14:57:37;99937.25;;;15.92;100.00
51439;BME280;38816;51.142;-0.974;2022-10-26T15:02:37;99932.94;;;15.89;100.00
51439;BME280;38816;51.142;-0.974;2022-10-26T15:07:51;99938.13;;;15.94;100.00
51439;BME280;38816;51.142;-0.974;2022-10-26T15:15:50;99925.47;;;15.59;100.00
51439;BME280;38816;51.142;-0.974;2022-10-26T15:18:21;99943.66;;;15.48;100.00
51439;BME280;38816;51.142;-0.974;2022-10-26T15:20:49;99942.88;;;15.38;100.00
51439;BME280;38816;51.142;-0.974;2022-10-26T15:23:15;99942.88;;;15.41;100.00
51439;BME280;38816;51.142;-0.974;2022-10-26T15:25:50;99946.22;;;15.53;100.00